sensor_id;sensor_type;location;lat;lon;timestamp;P1;durP1;ratioP1;P2;durP2;ratioP2
22298;SDS011;11317;51.072;17.036;2022-08-19T00:01:19;9.43;;;6.72;;
22298;SDS011;11317;51.072;17.036;2022-08-19T00:03:45;10.07;;;6.72;;
22298;SDS011;11317;51.072;17.036;2022-08-19T00:06:11;10.60;;;6.47;;
22298;SDS011;11317;51.072;17.036;2022-08-19T00:08:37;11.43;;;6.78;;
22298;SDS011;11317;51.072;17.036;2022-08-19T00:11:03;9.65;;;6.63;;
22298;SDS011;11317;51.072;17.036;2022-08-19T00:13:29;8.63;;;6.07;;
22298;SDS011;11317;51.072;17.036;2022-08-19T00:15:55;8.75;;;6.07;;
22298;SDS011;11317;51.072;17.036;2022-08-19T00:18:23;8.90;;;6.15;;
22298;SDS011;11317;51.072;17.036;2022-08-19T00:20:49;9.55;;;6.07;;
22298;SDS011;11317;51.072;17.036;2022-08-19T00:23:15;10.07;;;6.20;;
22298;SDS011;11317;51.072;17.036;2022-08-19T00:25:41;8.75;;;6.35;;
22298;SDS011;11317;51.072;17.036;2022-08-19T00:28:07;8.00;;;6.07;;
22298;SDS011;11317;51.072;17.036;2022-08-19T00:30:33;9.10;;;5.65;;
22298;SDS011;11317;51.072;17.036;2022-08-19T00:32:59;8.35;;;6.28;;
22298;SDS011;11317;51.072;17.036;2022-08-19T00:35:25;10.20;;;6.18;;
22298;SDS011;11317;51.072;17.036;2022-08-19T00:37:52;10.40;;;6.97;;
22298;SDS011;11317;51.072;17.036;2022-08-19T00:40:19;8.70;;;6.10;;
22298;SDS011;11317;51.072;17.036;2022-08-19T00:42:44;10.05;;;6.53;;
22298;SDS011;11317;51.072;17.036;2022-08-19T00:45:12;9.45;;;6.63;;
22298;SDS011;11317;51.072;17.036;2022-08-19T00:47:43;10.05;;;6.30;;
22298;SDS011;11317;51.072;17.036;2022-08-19T00:50:10;9.20;;;6.07;;
22298;SDS011;11317;51.072;17.036;2022-08-19T00:52:41;9.68;;;6.63;;
22298;SDS011;11317;51.072;17.036;2022-08-19T00:55:10;10.27;;;6.60;;
22298;SDS011;11317;51.072;17.036;2022-08-19T00:57:41;10.32;;;6.85;;
22298;SDS011;11317;51.072;17.036;2022-08-19T01:00:13;9.98;;;7.35;;
22298;SDS011;11317;51.072;17.036;2022-08-19T01:02:41;13.63;;;7.53;;
22298;SDS011;11317;51.072;17.036;2022-08-19T01:05:09;9.18;;;6.82;;
22298;SDS011;11317;51.072;17.036;2022-08-19T01:07:38;12.27;;;7.38;;
22298;SDS011;11317;51.072;17.036;2022-08-19T01:10:07;11.75;;;7.13;;
22298;SDS011;11317;51.072;17.036;2022-08-19T01:12:35;11.52;;;6.63;;
22298;SDS011;11317;51.072;17.036;2022-08-19T01:15:01;9.82;;;6.78;;
22298;SDS011;11317;51.072;17.036;2022-08-19T01:17:30;8.70;;;6.80;;
22298;SDS011;11317;51.072;17.036;2022-08-19T01:19:56;12.05;;;7.03;;
22298;SDS011;11317;51.072;17.036;2022-08-19T01:22:29;11.20;;;6.30;;
22298;SDS011;11317;51.072;17.036;2022-08-19T01:25:00;9.23;;;6.78;;
22298;SDS011;11317;51.072;17.036;2022-08-19T01:27:26;9.35;;;6.50;;
22298;SDS011;11317;51.072;17.036;2022-08-19T01:29:52;10.10;;;6.68;;
22298;SDS011;11317;51.072;17.036;2022-08-19T01:32:18;9.70;;;7.15;;
22298;SDS011;11317;51.072;17.036;2022-08-19T01:34:45;9.57;;;6.30;;
22298;SDS011;11317;51.072;17.036;2022-08-19T01:37:12;7.70;;;6.13;;
22298;SDS011;11317;51.072;17.036;2022-08-19T01:39:41;10.07;;;5.93;;
22298;SDS011;11317;51.072;17.036;2022-08-19T01:42:08;9.60;;;6.40;;
22298;SDS011;11317;51.072;17.036;2022-08-19T01:44:36;7.28;;;5.85;;
22298;SDS011;11317;51.072;17.036;2022-08-19T01:47:03;9.85;;;6.50;;
22298;SDS011;11317;51.072;17.036;2022-08-19T01:49:29;7.03;;;5.85;;
22298;SDS011;11317;51.072;17.036;2022-08-19T01:51:55;9.57;;;6.78;;
22298;SDS011;11317;51.072;17.036;2022-08-19T01:54:22;10.98;;;6.13;;
22298;SDS011;11317;51.072;17.036;2022-08-19T01:56:48;9.13;;;6.35;;
22298;SDS011;11317;51.072;17.036;2022-08-19T01:59:17;11.43;;;6.03;;
22298;SDS011;11317;51.072;17.036;2022-08-19T02:01:46;11.40;;;6.30;;
22298;SDS011;11317;51.072;17.036;2022-08-19T02:04:11;7.95;;;6.05;;
22298;SDS011;11317;51.072;17.036;2022-08-19T02:06:38;8.68;;;6.30;;
22298;SDS011;11317;51.072;17.036;2022-08-19T02:09:05;10.80;;;7.05;;
22298;SDS011;11317;51.072;17.036;2022-08-19T02:11:32;10.05;;;6.07;;
22298;SDS011;11317;51.072;17.036;2022-08-19T02:13:59;11.23;;;6.60;;
22298;SDS011;11317;51.072;17.036;2022-08-19T02:16:27;9.90;;;6.78;;
22298;SDS011;11317;51.072;17.036;2022-08-19T02:18:53;9.77;;;6.60;;
22298;SDS011;11317;51.072;17.036;2022-08-19T02:21:21;10.43;;;6.50;;
22298;SDS011;11317;51.072;17.036;2022-08-19T02:23:47;7.30;;;6.30;;
22298;SDS011;11317;51.072;17.036;2022-08-19T02:26:14;8.07;;;6.55;;
22298;SDS011;11317;51.072;17.036;2022-08-19T02:28:40;10.13;;;6.38;;
22298;SDS011;11317;51.072;17.036;2022-08-19T02:31:16;8.73;;;6.30;;
22298;SDS011;11317;51.072;17.036;2022-08-19T02:33:44;7.50;;;6.00;;
22298;SDS011;11317;51.072;17.036;2022-08-19T02:36:10;9.18;;;6.15;;
22298;SDS011;11317;51.072;17.036;2022-08-19T02:38:37;8.38;;;6.47;;
22298;SDS011;11317;51.072;17.036;2022-08-19T02:41:05;8.27;;;6.43;;
22298;SDS011;11317;51.072;17.036;2022-08-19T02:43:34;8.52;;;6.28;;
22298;SDS011;11317;51.072;17.036;2022-08-19T02:46:01;9.60;;;6.88;;
22298;SDS011;11317;51.072;17.036;2022-08-19T02:48:49;11.35;;;7.05;;
22298;SDS011;11317;51.072;17.036;2022-08-19T02:51:17;8.27;;;6.38;;
22298;SDS011;11317;51.072;17.036;2022-08-19T02:53:44;11.43;;;6.88;;
22298;SDS011;11317;51.072;17.036;2022-08-19T02:56:11;9.02;;;7.30;;
22298;SDS011;11317;51.072;17.036;2022-08-19T02:58:37;9.75;;;7.00;;
22298;SDS011;11317;51.072;17.036;2022-08-19T03:01:03;10.05;;;7.03;;
22298;SDS011;11317;51.072;17.036;2022-08-19T03:03:29;13.75;;;7.28;;
22298;SDS011;11317;51.072;17.036;2022-08-19T03:06:05;10.05;;;7.47;;
22298;SDS011;11317;51.072;17.036;2022-08-19T03:08:32;9.70;;;6.55;;
22298;SDS011;11317;51.072;17.036;2022-08-19T03:10:58;10.27;;;6.63;;
22298;SDS011;11317;51.072;17.036;2022-08-19T03:13:24;8.27;;;6.20;;
22298;SDS011;11317;51.072;17.036;2022-08-19T03:15:49;10.15;;;7.13;;
22298;SDS011;11317;51.072;17.036;2022-08-19T03:18:16;9.77;;;6.75;;
22298;SDS011;11317;51.072;17.036;2022-08-19T03:20:45;13.00;;;7.63;;
22298;SDS011;11317;51.072;17.036;2022-08-19T03:23:17;13.20;;;7.20;;
22298;SDS011;11317;51.072;17.036;2022-08-19T03:25:44;11.75;;;7.72;;
22298;SDS011;11317;51.072;17.036;2022-08-19T03:28:12;10.30;;;7.15;;
22298;SDS011;11317;51.072;17.036;2022-08-19T03:30:39;10.63;;;7.80;;
22298;SDS011;11317;51.072;17.036;2022-08-19T03:33:06;11.98;;;8.38;;
22298;SDS011;11317;51.072;17.036;2022-08-19T03:35:34;11.68;;;7.50;;
22298;SDS011;11317;51.072;17.036;2022-08-19T03:38:03;13.57;;;8.55;;
22298;SDS011;11317;51.072;17.036;2022-08-19T03:40:30;10.70;;;7.55;;
22298;SDS011;11317;51.072;17.036;2022-08-19T03:42:56;11.57;;;7.97;;
22298;SDS011;11317;51.072;17.036;2022-08-19T03:45:22;14.02;;;7.97;;
22298;SDS011;11317;51.072;17.036;2022-08-19T03:47:48;11.48;;;8.10;;
22298;SDS011;11317;51.072;17.036;2022-08-19T03:50:15;11.00;;;7.80;;
22298;SDS011;11317;51.072;17.036;2022-08-19T03:52:41;10.68;;;7.55;;
22298;SDS011;11317;51.072;17.036;2022-08-19T03:55:07;9.57;;;7.72;;
22298;SDS011;11317;51.072;17.036;2022-08-19T03:57:33;14.20;;;8.02;;
22298;SDS011;11317;51.072;17.036;2022-08-19T03:59:59;13.07;;;8.13;;
22298;SDS011;11317;51.072;17.036;2022-08-19T04:02:25;11.40;;;7.40;;
22298;SDS011;11317;51.072;17.036;2022-08-19T04:04:52;13.10;;;8.25;;
22298;SDS011;11317;51.072;17.036;2022-08-19T04:07:22;11.00;;;8.27;;
22298;SDS011;11317;51.072;17.036;2022-08-19T04:09:48;14.73;;;7.97;;
22298;SDS011;11317;51.072;17.036;2022-08-19T04:12:13;13.18;;;8.48;;
22298;SDS011;11317;51.072;17.036;2022-08-19T04:14:40;13.85;;;8.35;;
22298;SDS011;11317;51.072;17.036;2022-08-19T04:17:06;14.80;;;8.85;;
22298;SDS011;11317;51.072;17.036;2022-08-19T04:19:32;14.88;;;8.40;;
22298;SDS011;11317;51.072;17.036;2022-08-19T04:21:59;15.85;;;8.80;;
22298;SDS011;11317;51.072;17.036;2022-08-19T04:24:25;13.55;;;8.50;;
22298;SDS011;11317;51.072;17.036;2022-08-19T04:26:51;11.80;;;8.23;;
22298;SDS011;11317;51.072;17.036;2022-08-19T04:29:19;14.18;;;8.30;;
22298;SDS011;11317;51.072;17.036;2022-08-19T04:31:46;13.65;;;8.52;;
22298;SDS011;11317;51.072;17.036;2022-08-19T04:34:14;12.13;;;8.25;;
22298;SDS011;11317;51.072;17.036;2022-08-19T04:36:42;16.63;;;9.20;;
22298;SDS011;11317;51.072;17.036;2022-08-19T04:39:13;12.25;;;8.68;;
22298;SDS011;11317;51.072;17.036;2022-08-19T04:41:40;12.15;;;8.98;;
22298;SDS011;11317;51.072;17.036;2022-08-19T04:44:24;12.90;;;8.23;;
22298;SDS011;11317;51.072;17.036;2022-08-19T04:46:50;14.27;;;8.65;;
22298;SDS011;11317;51.072;17.036;2022-08-19T04:49:17;12.63;;;8.45;;
22298;SDS011;11317;51.072;17.036;2022-08-19T04:51:46;12.75;;;9.00;;
22298;SDS011;11317;51.072;17.036;2022-08-19T04:54:13;12.85;;;9.10;;
22298;SDS011;11317;51.072;17.036;2022-08-19T04:56:40;13.73;;;9.07;;
22298;SDS011;11317;51.072;17.036;2022-08-19T04:59:06;13.98;;;9.23;;
22298;SDS011;11317;51.072;17.036;2022-08-19T05:01:33;13.07;;;9.20;;
22298;SDS011;11317;51.072;17.036;2022-08-19T05:04:00;14.70;;;9.02;;
22298;SDS011;11317;51.072;17.036;2022-08-19T05:06:29;13.38;;;8.13;;
22298;SDS011;11317;51.072;17.036;2022-08-19T05:08:59;14.30;;;9.25;;
22298;SDS011;11317;51.072;17.036;2022-08-19T05:11:29;15.60;;;10.05;;
22298;SDS011;11317;51.072;17.036;2022-08-19T05:13:57;15.25;;;9.55;;
22298;SDS011;11317;51.072;17.036;2022-08-19T05:16:24;13.85;;;9.15;;
22298;SDS011;11317;51.072;17.036;2022-08-19T05:18:51;16.00;;;9.57;;
22298;SDS011;11317;51.072;17.036;2022-08-19T05:21:35;15.25;;;9.27;;
22298;SDS011;11317;51.072;17.036;2022-08-19T05:24:20;12.63;;;9.18;;
22298;SDS011;11317;51.072;17.036;2022-08-19T05:27:00;15.15;;;9.60;;
22298;SDS011;11317;51.072;17.036;2022-08-19T05:29:27;17.60;;;10.23;;
22298;SDS011;11317;51.072;17.036;2022-08-19T05:31:54;14.65;;;9.13;;
22298;SDS011;11317;51.072;17.036;2022-08-19T05:34:21;16.35;;;9.88;;
22298;SDS011;11317;51.072;17.036;2022-08-19T05:36:50;16.63;;;9.30;;
22298;SDS011;11317;51.072;17.036;2022-08-19T05:39:22;16.33;;;9.93;;
22298;SDS011;11317;51.072;17.036;2022-08-19T05:41:50;16.55;;;9.75;;
22298;SDS011;11317;51.072;17.036;2022-08-19T05:44:19;17.23;;;10.35;;
22298;SDS011;11317;51.072;17.036;2022-08-19T05:46:46;20.60;;;9.95;;
22298;SDS011;11317;51.072;17.036;2022-08-19T05:49:13;12.70;;;8.85;;
22298;SDS011;11317;51.072;17.036;2022-08-19T05:51:40;18.00;;;9.82;;
22298;SDS011;11317;51.072;17.036;2022-08-19T05:54:06;17.92;;;9.77;;
22298;SDS011;11317;51.072;17.036;2022-08-19T05:56:33;14.43;;;9.60;;
22298;SDS011;11317;51.072;17.036;2022-08-19T05:59:03;15.57;;;10.10;;
22298;SDS011;11317;51.072;17.036;2022-08-19T06:01:36;15.45;;;10.50;;
22298;SDS011;11317;51.072;17.036;2022-08-19T06:04:03;13.90;;;9.80;;
22298;SDS011;11317;51.072;17.036;2022-08-19T06:06:29;16.90;;;10.80;;
22298;SDS011;11317;51.072;17.036;2022-08-19T06:08:55;14.95;;;10.25;;
22298;SDS011;11317;51.072;17.036;2022-08-19T06:11:22;13.43;;;9.80;;
22298;SDS011;11317;51.072;17.036;2022-08-19T06:13:51;16.20;;;9.48;;
22298;SDS011;11317;51.072;17.036;2022-08-19T06:16:18;17.70;;;10.63;;
22298;SDS011;11317;51.072;17.036;2022-08-19T06:18:54;19.35;;;10.73;;
22298;SDS011;11317;51.072;17.036;2022-08-19T06:21:23;15.57;;;9.90;;
22298;SDS011;11317;51.072;17.036;2022-08-19T06:23:51;17.08;;;10.00;;
22298;SDS011;11317;51.072;17.036;2022-08-19T06:26:18;13.55;;;8.65;;
22298;SDS011;11317;51.072;17.036;2022-08-19T06:28:45;14.52;;;9.90;;
22298;SDS011;11317;51.072;17.036;2022-08-19T06:31:14;13.27;;;9.27;;
22298;SDS011;11317;51.072;17.036;2022-08-19T06:33:41;15.23;;;10.27;;
22298;SDS011;11317;51.072;17.036;2022-08-19T06:36:15;12.57;;;8.32;;
22298;SDS011;11317;51.072;17.036;2022-08-19T06:38:42;16.42;;;8.60;;
22298;SDS011;11317;51.072;17.036;2022-08-19T06:41:08;13.68;;;8.73;;
22298;SDS011;11317;51.072;17.036;2022-08-19T06:43:34;12.98;;;9.02;;
22298;SDS011;11317;51.072;17.036;2022-08-19T06:46:01;12.93;;;8.52;;
22298;SDS011;11317;51.072;17.036;2022-08-19T06:48:28;10.35;;;8.13;;
22298;SDS011;11317;51.072;17.036;2022-08-19T06:50:54;12.73;;;8.30;;
22298;SDS011;11317;51.072;17.036;2022-08-19T06:53:21;12.20;;;8.82;;
22298;SDS011;11317;51.072;17.036;2022-08-19T06:55:46;10.02;;;7.50;;
22298;SDS011;11317;51.072;17.036;2022-08-19T06:58:12;11.35;;;8.30;;
22298;SDS011;11317;51.072;17.036;2022-08-19T07:00:39;13.05;;;7.70;;
22298;SDS011;11317;51.072;17.036;2022-08-19T07:03:05;9.27;;;6.90;;
22298;SDS011;11317;51.072;17.036;2022-08-19T07:05:32;10.25;;;7.32;;
22298;SDS011;11317;51.072;17.036;2022-08-19T07:07:57;12.27;;;8.20;;
22298;SDS011;11317;51.072;17.036;2022-08-19T07:10:23;12.38;;;7.85;;
22298;SDS011;11317;51.072;17.036;2022-08-19T07:12:50;10.05;;;7.82;;
22298;SDS011;11317;51.072;17.036;2022-08-19T07:15:16;9.15;;;7.18;;
22298;SDS011;11317;51.072;17.036;2022-08-19T07:17:42;9.77;;;7.55;;
22298;SDS011;11317;51.072;17.036;2022-08-19T07:20:08;8.55;;;6.60;;
22298;SDS011;11317;51.072;17.036;2022-08-19T07:22:35;14.93;;;7.13;;
22298;SDS011;11317;51.072;17.036;2022-08-19T07:25:01;7.55;;;6.68;;
22298;SDS011;11317;51.072;17.036;2022-08-19T07:27:28;9.02;;;7.07;;
22298;SDS011;11317;51.072;17.036;2022-08-19T07:29:54;8.93;;;6.70;;
22298;SDS011;11317;51.072;17.036;2022-08-19T07:32:20;7.70;;;6.03;;
22298;SDS011;11317;51.072;17.036;2022-08-19T07:34:45;10.02;;;6.38;;
22298;SDS011;11317;51.072;17.036;2022-08-19T07:37:11;7.97;;;6.60;;
22298;SDS011;11317;51.072;17.036;2022-08-19T07:39:37;8.07;;;5.82;;
22298;SDS011;11317;51.072;17.036;2022-08-19T07:42:06;9.60;;;6.65;;
22298;SDS011;11317;51.072;17.036;2022-08-19T07:44:34;9.13;;;6.38;;
22298;SDS011;11317;51.072;17.036;2022-08-19T07:47:01;12.15;;;6.60;;
22298;SDS011;11317;51.072;17.036;2022-08-19T07:49:28;9.20;;;6.72;;
22298;SDS011;11317;51.072;17.036;2022-08-19T07:54:49;7.18;;;5.82;;
22298;SDS011;11317;51.072;17.036;2022-08-19T07:57:15;6.30;;;5.70;;
22298;SDS011;11317;51.072;17.036;2022-08-19T07:59:41;9.23;;;6.10;;
22298;SDS011;11317;51.072;17.036;2022-08-19T08:02:08;7.72;;;5.80;;
22298;SDS011;11317;51.072;17.036;2022-08-19T08:04:36;7.55;;;5.80;;
22298;SDS011;11317;51.072;17.036;2022-08-19T08:07:25;7.40;;;5.75;;
22298;SDS011;11317;51.072;17.036;2022-08-19T08:10:09;7.65;;;5.97;;
22298;SDS011;11317;51.072;17.036;2022-08-19T08:12:38;6.15;;;5.60;;
22298;SDS011;11317;51.072;17.036;2022-08-19T08:15:10;12.20;;;6.05;;
22298;SDS011;11317;51.072;17.036;2022-08-19T08:17:43;6.85;;;6.13;;
22298;SDS011;11317;51.072;17.036;2022-08-19T08:20:10;8.75;;;6.07;;
22298;SDS011;11317;51.072;17.036;2022-08-19T08:22:37;8.10;;;5.63;;
22298;SDS011;11317;51.072;17.036;2022-08-19T08:25:26;7.32;;;5.82;;
22298;SDS011;11317;51.072;17.036;2022-08-19T08:27:54;10.02;;;6.28;;
22298;SDS011;11317;51.072;17.036;2022-08-19T08:30:24;9.52;;;6.07;;
22298;SDS011;11317;51.072;17.036;2022-08-19T08:32:51;9.68;;;6.25;;
22298;SDS011;11317;51.072;17.036;2022-08-19T08:35:18;12.00;;;5.50;;
22298;SDS011;11317;51.072;17.036;2022-08-19T08:37:46;7.90;;;6.10;;
22298;SDS011;11317;51.072;17.036;2022-08-19T08:42:57;7.68;;;5.72;;
22298;SDS011;11317;51.072;17.036;2022-08-19T08:45:31;7.25;;;6.20;;
22298;SDS011;11317;51.072;17.036;2022-08-19T08:48:01;11.23;;;5.95;;
22298;SDS011;11317;51.072;17.036;2022-08-19T08:50:45;8.57;;;5.90;;
22298;SDS011;11317;51.072;17.036;2022-08-19T08:53:13;8.95;;;6.20;;
22298;SDS011;11317;51.072;17.036;2022-08-19T08:55:42;8.98;;;5.72;;
22298;SDS011;11317;51.072;17.036;2022-08-19T08:58:12;7.35;;;5.40;;
22298;SDS011;11317;51.072;17.036;2022-08-19T09:00:46;11.43;;;5.80;;
22298;SDS011;11317;51.072;17.036;2022-08-19T09:03:21;6.05;;;5.03;;
22298;SDS011;11317;51.072;17.036;2022-08-19T09:14:10;8.32;;;5.85;;
22298;SDS011;11317;51.072;17.036;2022-08-19T09:16:44;7.57;;;5.72;;
22298;SDS011;11317;51.072;17.036;2022-08-19T09:19:10;7.60;;;5.20;;
22298;SDS011;11317;51.072;17.036;2022-08-19T09:21:36;7.10;;;5.25;;
22298;SDS011;11317;51.072;17.036;2022-08-19T09:24:03;6.38;;;5.35;;
22298;SDS011;11317;51.072;17.036;2022-08-19T09:26:30;6.00;;;5.40;;
22298;SDS011;11317;51.072;17.036;2022-08-19T09:28:57;7.57;;;5.68;;
22298;SDS011;11317;51.072;17.036;2022-08-19T09:31:25;6.47;;;4.88;;
22298;SDS011;11317;51.072;17.036;2022-08-19T09:33:53;6.22;;;5.38;;
22298;SDS011;11317;51.072;17.036;2022-08-19T09:36:22;10.52;;;5.40;;
22298;SDS011;11317;51.072;17.036;2022-08-19T09:38:51;6.18;;;5.57;;
22298;SDS011;11317;51.072;17.036;2022-08-19T09:41:18;9.60;;;5.72;;
22298;SDS011;11317;51.072;17.036;2022-08-19T09:43:47;8.07;;;5.55;;
22298;SDS011;11317;51.072;17.036;2022-08-19T09:46:17;6.10;;;5.50;;
22298;SDS011;11317;51.072;17.036;2022-08-19T09:48:46;9.35;;;5.65;;
22298;SDS011;11317;51.072;17.036;2022-08-19T09:51:14;8.98;;;5.53;;
22298;SDS011;11317;51.072;17.036;2022-08-19T09:53:42;9.73;;;5.63;;
22298;SDS011;11317;51.072;17.036;2022-08-19T09:56:11;8.18;;;5.13;;
22298;SDS011;11317;51.072;17.036;2022-08-19T09:58:38;11.45;;;5.40;;
22298;SDS011;11317;51.072;17.036;2022-08-19T10:01:05;5.60;;;5.10;;
22298;SDS011;11317;51.072;17.036;2022-08-19T10:03:32;6.25;;;5.20;;
22298;SDS011;11317;51.072;17.036;2022-08-19T10:06:00;7.88;;;5.32;;
22298;SDS011;11317;51.072;17.036;2022-08-19T10:08:30;7.97;;;5.40;;
22298;SDS011;11317;51.072;17.036;2022-08-19T10:10:58;6.22;;;4.35;;
22298;SDS011;11317;51.072;17.036;2022-08-19T10:13:26;4.97;;;4.57;;
22298;SDS011;11317;51.072;17.036;2022-08-19T10:15:54;5.85;;;5.05;;
22298;SDS011;11317;51.072;17.036;2022-08-19T10:18:29;4.82;;;4.43;;
22298;SDS011;11317;51.072;17.036;2022-08-19T10:21:03;5.55;;;4.53;;
22298;SDS011;11317;51.072;17.036;2022-08-19T10:23:33;7.68;;;5.10;;
22298;SDS011;11317;51.072;17.036;2022-08-19T10:26:01;5.60;;;5.03;;
22298;SDS011;11317;51.072;17.036;2022-08-19T10:28:30;7.18;;;5.13;;
22298;SDS011;11317;51.072;17.036;2022-08-19T10:31:06;6.68;;;5.00;;
22298;SDS011;11317;51.072;17.036;2022-08-19T10:33:34;6.07;;;4.80;;
22298;SDS011;11317;51.072;17.036;2022-08-19T10:36:01;6.43;;;4.85;;
22298;SDS011;11317;51.072;17.036;2022-08-19T10:38:37;5.95;;;5.10;;
22298;SDS011;11317;51.072;17.036;2022-08-19T10:41:21;6.68;;;5.35;;
22298;SDS011;11317;51.072;17.036;2022-08-19T10:43:52;7.75;;;4.75;;
22298;SDS011;11317;51.072;17.036;2022-08-19T10:46:20;13.02;;;5.18;;
22298;SDS011;11317;51.072;17.036;2022-08-19T10:48:48;6.15;;;4.75;;
22298;SDS011;11317;51.072;17.036;2022-08-19T10:51:14;5.80;;;4.32;;
22298;SDS011;11317;51.072;17.036;2022-08-19T10:53:59;4.50;;;4.10;;
22298;SDS011;11317;51.072;17.036;2022-08-19T10:56:26;6.95;;;4.00;;
22298;SDS011;11317;51.072;17.036;2022-08-19T10:59:12;5.55;;;4.07;;
22298;SDS011;11317;51.072;17.036;2022-08-19T11:01:40;5.70;;;4.35;;
22298;SDS011;11317;51.072;17.036;2022-08-19T11:04:07;5.38;;;4.47;;
22298;SDS011;11317;51.072;17.036;2022-08-19T11:06:38;4.50;;;4.10;;
22298;SDS011;11317;51.072;17.036;2022-08-19T11:09:06;6.10;;;4.15;;
22298;SDS011;11317;51.072;17.036;2022-08-19T11:11:32;4.97;;;3.80;;
22298;SDS011;11317;51.072;17.036;2022-08-19T11:14:10;4.75;;;3.90;;
22298;SDS011;11317;51.072;17.036;2022-08-19T11:16:37;9.03;;;3.90;;
22298;SDS011;11317;51.072;17.036;2022-08-19T11:19:04;4.95;;;3.97;;
22298;SDS011;11317;51.072;17.036;2022-08-19T11:21:33;5.20;;;3.80;;
22298;SDS011;11317;51.072;17.036;2022-08-19T11:24:03;5.50;;;4.05;;
22298;SDS011;11317;51.072;17.036;2022-08-19T11:26:31;6.93;;;3.97;;
22298;SDS011;11317;51.072;17.036;2022-08-19T11:28:58;6.55;;;3.60;;
22298;SDS011;11317;51.072;17.036;2022-08-19T11:31:29;4.38;;;3.20;;
22298;SDS011;11317;51.072;17.036;2022-08-19T11:33:56;3.72;;;3.17;;
22298;SDS011;11317;51.072;17.036;2022-08-19T11:36:24;5.50;;;3.90;;
22298;SDS011;11317;51.072;17.036;2022-08-19T11:38:50;3.42;;;3.13;;
22298;SDS011;11317;51.072;17.036;2022-08-19T11:41:17;4.00;;;3.10;;
22298;SDS011;11317;51.072;17.036;2022-08-19T11:43:44;4.45;;;3.88;;
22298;SDS011;11317;51.072;17.036;2022-08-19T11:46:11;3.83;;;3.42;;
22298;SDS011;11317;51.072;17.036;2022-08-19T11:48:39;4.80;;;3.42;;
22298;SDS011;11317;51.072;17.036;2022-08-19T11:51:06;3.33;;;3.03;;
22298;SDS011;11317;51.072;17.036;2022-08-19T11:53:35;4.65;;;2.78;;
22298;SDS011;11317;51.072;17.036;2022-08-19T11:56:01;2.97;;;2.72;;
22298;SDS011;11317;51.072;17.036;2022-08-19T11:58:28;3.92;;;2.97;;
22298;SDS011;11317;51.072;17.036;2022-08-19T12:00:54;3.92;;;2.80;;
22298;SDS011;11317;51.072;17.036;2022-08-19T12:03:20;3.25;;;2.42;;
22298;SDS011;11317;51.072;17.036;2022-08-19T12:05:46;2.83;;;2.55;;
22298;SDS011;11317;51.072;17.036;2022-08-19T12:08:12;3.22;;;2.25;;
22298;SDS011;11317;51.072;17.036;2022-08-19T12:10:38;6.22;;;2.30;;
22298;SDS011;11317;51.072;17.036;2022-08-19T12:13:06;3.30;;;2.40;;
22298;SDS011;11317;51.072;17.036;2022-08-19T12:15:36;2.70;;;2.47;;
22298;SDS011;11317;51.072;17.036;2022-08-19T12:18:03;5.22;;;2.80;;
22298;SDS011;11317;51.072;17.036;2022-08-19T12:20:29;4.82;;;2.90;;
22298;SDS011;11317;51.072;17.036;2022-08-19T12:22:55;3.63;;;2.50;;
22298;SDS011;11317;51.072;17.036;2022-08-19T12:25:21;6.75;;;3.35;;
22298;SDS011;11317;51.072;17.036;2022-08-19T12:27:47;4.45;;;3.00;;
22298;SDS011;11317;51.072;17.036;2022-08-19T12:30:14;4.90;;;2.80;;
22298;SDS011;11317;51.072;17.036;2022-08-19T12:32:40;3.88;;;3.13;;
22298;SDS011;11317;51.072;17.036;2022-08-19T12:35:06;4.65;;;3.03;;
22298;SDS011;11317;51.072;17.036;2022-08-19T12:37:33;4.88;;;2.70;;
22298;SDS011;11317;51.072;17.036;2022-08-19T12:39:59;4.15;;;2.65;;
22298;SDS011;11317;51.072;17.036;2022-08-19T12:42:25;3.72;;;3.10;;
22298;SDS011;11317;51.072;17.036;2022-08-19T12:44:51;3.95;;;2.90;;
22298;SDS011;11317;51.072;17.036;2022-08-19T12:47:17;5.80;;;3.42;;
22298;SDS011;11317;51.072;17.036;2022-08-19T12:49:43;4.70;;;3.20;;
22298;SDS011;11317;51.072;17.036;2022-08-19T12:52:11;5.07;;;2.90;;
22298;SDS011;11317;51.072;17.036;2022-08-19T12:54:40;5.18;;;2.97;;
22298;SDS011;11317;51.072;17.036;2022-08-19T12:57:06;9.15;;;2.97;;
22298;SDS011;11317;51.072;17.036;2022-08-19T12:59:37;4.75;;;2.53;;
22298;SDS011;11317;51.072;17.036;2022-08-19T13:02:04;4.07;;;2.60;;
22298;SDS011;11317;51.072;17.036;2022-08-19T13:04:31;3.95;;;2.40;;
22298;SDS011;11317;51.072;17.036;2022-08-19T13:06:59;5.40;;;2.85;;
22298;SDS011;11317;51.072;17.036;2022-08-19T13:09:25;5.45;;;2.40;;
22298;SDS011;11317;51.072;17.036;2022-08-19T13:11:51;4.30;;;2.42;;
22298;SDS011;11317;51.072;17.036;2022-08-19T13:14:17;6.07;;;2.72;;
22298;SDS011;11317;51.072;17.036;2022-08-19T13:16:43;6.28;;;2.97;;
22298;SDS011;11317;51.072;17.036;2022-08-19T13:19:09;4.72;;;2.60;;
22298;SDS011;11317;51.072;17.036;2022-08-19T13:21:36;5.03;;;2.97;;
22298;SDS011;11317;51.072;17.036;2022-08-19T13:24:03;4.95;;;2.78;;
22298;SDS011;11317;51.072;17.036;2022-08-19T13:26:29;4.50;;;2.58;;
22298;SDS011;11317;51.072;17.036;2022-08-19T13:28:55;4.05;;;2.40;;
22298;SDS011;11317;51.072;17.036;2022-08-19T13:31:40;4.35;;;2.88;;
22298;SDS011;11317;51.072;17.036;2022-08-19T13:34:27;4.03;;;2.65;;
22298;SDS011;11317;51.072;17.036;2022-08-19T13:36:59;4.00;;;2.97;;
22298;SDS011;11317;51.072;17.036;2022-08-19T13:39:30;5.18;;;2.85;;
22298;SDS011;11317;51.072;17.036;2022-08-19T13:41:59;3.03;;;2.53;;
22298;SDS011;11317;51.072;17.036;2022-08-19T13:44:26;6.68;;;2.47;;
22298;SDS011;11317;51.072;17.036;2022-08-19T13:46:54;4.82;;;2.80;;
22298;SDS011;11317;51.072;17.036;2022-08-19T13:49:24;5.03;;;2.65;;
22298;SDS011;11317;51.072;17.036;2022-08-19T13:51:50;7.85;;;2.55;;
22298;SDS011;11317;51.072;17.036;2022-08-19T13:54:19;4.75;;;2.72;;
22298;SDS011;11317;51.072;17.036;2022-08-19T13:56:45;3.95;;;2.42;;
22298;SDS011;11317;51.072;17.036;2022-08-19T13:59:11;4.22;;;3.00;;
22298;SDS011;11317;51.072;17.036;2022-08-19T14:01:38;8.57;;;2.95;;
22298;SDS011;11317;51.072;17.036;2022-08-19T14:04:04;5.80;;;2.85;;
22298;SDS011;11317;51.072;17.036;2022-08-19T14:06:31;3.63;;;2.78;;
22298;SDS011;11317;51.072;17.036;2022-08-19T14:08:57;3.70;;;3.05;;
22298;SDS011;11317;51.072;17.036;2022-08-19T14:11:23;5.32;;;3.13;;
22298;SDS011;11317;51.072;17.036;2022-08-19T14:13:49;6.93;;;2.95;;
22298;SDS011;11317;51.072;17.036;2022-08-19T14:16:15;4.85;;;2.50;;
22298;SDS011;11317;51.072;17.036;2022-08-19T14:18:42;5.40;;;2.67;;
22298;SDS011;11317;51.072;17.036;2022-08-19T14:21:11;3.33;;;2.70;;
22298;SDS011;11317;51.072;17.036;2022-08-19T14:23:45;3.13;;;2.65;;
22298;SDS011;11317;51.072;17.036;2022-08-19T14:26:13;7.00;;;3.50;;
22298;SDS011;11317;51.072;17.036;2022-08-19T14:28:41;7.03;;;3.00;;
22298;SDS011;11317;51.072;17.036;2022-08-19T14:31:11;8.45;;;2.90;;
22298;SDS011;11317;51.072;17.036;2022-08-19T14:33:39;4.47;;;2.22;;
22298;SDS011;11317;51.072;17.036;2022-08-19T14:36:05;4.78;;;2.88;;
22298;SDS011;11317;51.072;17.036;2022-08-19T14:38:31;4.80;;;2.55;;
22298;SDS011;11317;51.072;17.036;2022-08-19T14:41:14;5.60;;;3.17;;
22298;SDS011;11317;51.072;17.036;2022-08-19T14:43:48;3.55;;;3.03;;
22298;SDS011;11317;51.072;17.036;2022-08-19T14:46:16;6.18;;;3.45;;
22298;SDS011;11317;51.072;17.036;2022-08-19T14:48:45;4.57;;;3.30;;